sensor_id;sensor_type;location;lat;lon;timestamp;P1;durP1;ratioP1;P2;durP2;ratioP2
38130;SDS011;23947;51.894;4.622;2023-03-14T00:02:10;14.57;;;1.38;;
38130;SDS011;23947;51.894;4.622;2023-03-14T00:04:35;18.42;;;1.50;;
38130;SDS011;23947;51.894;4.622;2023-03-14T00:07:01;19.08;;;2.03;;
38130;SDS011;23947;51.894;4.622;2023-03-14T00:09:27;10.00;;;0.70;;
38130;SDS011;23947;51.894;4.622;2023-03-14T00:11:54;16.52;;;1.20;;
38130;SDS011;23947;51.894;4.622;2023-03-14T00:14:20;12.88;;;1.48;;
38130;SDS011;23947;51.894;4.622;2023-03-14T00:16:46;11.52;;;1.20;;
38130;SDS011;23947;51.894;4.622;2023-03-14T00:19:12;16.27;;;1.45;;
38130;SDS011;23947;51.894;4.622;2023-03-14T00:21:38;12.30;;;1.23;;
38130;SDS011;23947;51.894;4.622;2023-03-14T00:24:03;14.27;;;1.40;;
38130;SDS011;23947;51.894;4.622;2023-03-14T00:26:29;13.98;;;1.00;;
38130;SDS011;23947;51.894;4.622;2023-03-14T00:28:55;16.40;;;1.02;;
38130;SDS011;23947;51.894;4.622;2023-03-14T00:31:21;10.90;;;1.52;;
38130;SDS011;23947;51.894;4.622;2023-03-14T00:33:46;15.93;;;1.58;;
38130;SDS011;23947;51.894;4.622;2023-03-14T00:36:13;13.75;;;1.77;;
38130;SDS011;23947;51.894;4.622;2023-03-14T00:38:41;19.02;;;1.30;;
38130;SDS011;23947;51.894;4.622;2023-03-14T00:41:09;14.30;;;1.05;;
38130;SDS011;23947;51.894;4.622;2023-03-14T00:43:36;11.53;;;1.53;;
38130;SDS011;23947;51.894;4.622;2023-03-14T00:46:02;13.45;;;1.35;;
38130;SDS011;23947;51.894;4.622;2023-03-14T00:48:28;8.60;;;1.10;;
38130;SDS011;23947;51.894;4.622;2023-03-14T00:50:54;14.63;;;1.20;;
38130;SDS011;23947;51.894;4.622;2023-03-14T00:53:20;15.77;;;1.83;;
38130;SDS011;23947;51.894;4.622;2023-03-14T00:55:46;20.15;;;1.50;;
38130;SDS011;23947;51.894;4.622;2023-03-14T00:58:13;13.65;;;1.00;;
38130;SDS011;23947;51.894;4.622;2023-03-14T01:00:40;13.45;;;1.13;;
38130;SDS011;23947;51.894;4.622;2023-03-14T01:03:06;20.02;;;1.10;;
38130;SDS011;23947;51.894;4.622;2023-03-14T01:05:32;8.48;;;0.65;;
38130;SDS011;23947;51.894;4.622;2023-03-14T01:07:58;19.70;;;1.42;;
38130;SDS011;23947;51.894;4.622;2023-03-14T01:10:25;11.70;;;0.82;;
38130;SDS011;23947;51.894;4.622;2023-03-14T01:12:50;17.95;;;1.30;;
38130;SDS011;23947;51.894;4.622;2023-03-14T01:15:16;19.35;;;1.50;;
38130;SDS011;23947;51.894;4.622;2023-03-14T01:17:44;17.33;;;1.70;;
38130;SDS011;23947;51.894;4.622;2023-03-14T01:20:11;12.82;;;0.90;;
38130;SDS011;23947;51.894;4.622;2023-03-14T01:22:38;16.52;;;2.25;;
38130;SDS011;23947;51.894;4.622;2023-03-14T01:25:05;17.98;;;1.08;;
38130;SDS011;23947;51.894;4.622;2023-03-14T01:27:32;14.25;;;1.13;;
38130;SDS011;23947;51.894;4.622;2023-03-14T01:29:58;12.30;;;1.27;;
38130;SDS011;23947;51.894;4.622;2023-03-14T01:32:24;11.98;;;0.85;;
38130;SDS011;23947;51.894;4.622;2023-03-14T01:34:50;21.05;;;1.20;;
38130;SDS011;23947;51.894;4.622;2023-03-14T01:37:16;12.30;;;0.95;;
38130;SDS011;23947;51.894;4.622;2023-03-14T01:39:42;16.48;;;1.30;;
38130;SDS011;23947;51.894;4.622;2023-03-14T01:42:07;11.45;;;1.60;;
38130;SDS011;23947;51.894;4.622;2023-03-14T01:44:53;13.20;;;1.45;;
38130;SDS011;23947;51.894;4.622;2023-03-14T01:47:20;17.65;;;1.10;;
38130;SDS011;23947;51.894;4.622;2023-03-14T01:49:46;13.35;;;0.82;;
38130;SDS011;23947;51.894;4.622;2023-03-14T01:52:20;14.30;;;1.15;;
38130;SDS011;23947;51.894;4.622;2023-03-14T01:54:51;14.73;;;0.80;;
38130;SDS011;23947;51.894;4.622;2023-03-14T01:57:20;13.15;;;1.35;;
38130;SDS011;23947;51.894;4.622;2023-03-14T01:59:55;10.98;;;0.82;;
38130;SDS011;23947;51.894;4.622;2023-03-14T02:02:28;10.90;;;1.00;;
38130;SDS011;23947;51.894;4.622;2023-03-14T02:04:55;13.52;;;1.65;;
38130;SDS011;23947;51.894;4.622;2023-03-14T02:07:27;8.63;;;1.40;;
38130;SDS011;23947;51.894;4.622;2023-03-14T02:10:00;13.63;;;1.30;;
38130;SDS011;23947;51.894;4.622;2023-03-14T02:12:28;10.20;;;0.93;;
38130;SDS011;23947;51.894;4.622;2023-03-14T02:14:53;16.27;;;1.98;;
38130;SDS011;23947;51.894;4.622;2023-03-14T02:17:19;13.95;;;0.75;;
38130;SDS011;23947;51.894;4.622;2023-03-14T02:19:53;9.77;;;1.30;;
38130;SDS011;23947;51.894;4.622;2023-03-14T02:22:23;10.32;;;1.00;;
38130;SDS011;23947;51.894;4.622;2023-03-14T02:24:53;10.90;;;0.82;;
38130;SDS011;23947;51.894;4.622;2023-03-14T02:27:41;16.00;;;1.52;;
38130;SDS011;23947;51.894;4.622;2023-03-14T02:30:10;9.95;;;0.93;;
38130;SDS011;23947;51.894;4.622;2023-03-14T02:32:39;8.35;;;0.88;;
38130;SDS011;23947;51.894;4.622;2023-03-14T02:35:09;10.73;;;1.08;;
38130;SDS011;23947;51.894;4.622;2023-03-14T02:37:57;16.00;;;1.00;;
38130;SDS011;23947;51.894;4.622;2023-03-14T02:40:45;9.25;;;1.10;;
38130;SDS011;23947;51.894;4.622;2023-03-14T02:43:11;11.57;;;1.15;;
38130;SDS011;23947;51.894;4.622;2023-03-14T02:48:09;11.40;;;1.40;;
38130;SDS011;23947;51.894;4.622;2023-03-14T02:50:39;11.02;;;1.17;;
38130;SDS011;23947;51.894;4.622;2023-03-14T02:53:04;12.77;;;1.35;;
38130;SDS011;23947;51.894;4.622;2023-03-14T02:55:30;14.13;;;1.65;;
38130;SDS011;23947;51.894;4.622;2023-03-14T02:57:56;13.50;;;2.50;;
38130;SDS011;23947;51.894;4.622;2023-03-14T03:00:21;13.90;;;1.30;;
38130;SDS011;23947;51.894;4.622;2023-03-14T03:02:47;15.57;;;1.80;;
38130;SDS011;23947;51.894;4.622;2023-03-14T03:05:13;15.70;;;1.27;;
38130;SDS011;23947;51.894;4.622;2023-03-14T03:07:38;14.77;;;1.42;;
38130;SDS011;23947;51.894;4.622;2023-03-14T03:10:04;17.60;;;1.63;;
38130;SDS011;23947;51.894;4.622;2023-03-14T03:12:30;16.77;;;1.85;;
38130;SDS011;23947;51.894;4.622;2023-03-14T03:14:56;15.30;;;1.67;;
38130;SDS011;23947;51.894;4.622;2023-03-14T03:17:22;14.48;;;1.80;;
38130;SDS011;23947;51.894;4.622;2023-03-14T03:19:47;14.57;;;1.42;;
38130;SDS011;23947;51.894;4.622;2023-03-14T03:22:13;17.48;;;1.77;;
38130;SDS011;23947;51.894;4.622;2023-03-14T03:24:38;15.00;;;1.30;;
38130;SDS011;23947;51.894;4.622;2023-03-14T03:27:04;16.90;;;1.25;;
38130;SDS011;23947;51.894;4.622;2023-03-14T03:29:30;17.50;;;1.88;;
38130;SDS011;23947;51.894;4.622;2023-03-14T03:31:55;18.00;;;1.75;;
38130;SDS011;23947;51.894;4.622;2023-03-14T03:34:21;15.30;;;1.55;;
38130;SDS011;23947;51.894;4.622;2023-03-14T03:36:46;12.40;;;1.80;;
38130;SDS011;23947;51.894;4.622;2023-03-14T03:39:12;17.27;;;1.35;;
38130;SDS011;23947;51.894;4.622;2023-03-14T03:41:38;15.55;;;1.63;;
38130;SDS011;23947;51.894;4.622;2023-03-14T03:44:03;13.50;;;1.10;;
38130;SDS011;23947;51.894;4.622;2023-03-14T03:46:30;22.05;;;1.88;;
38130;SDS011;23947;51.894;4.622;2023-03-14T03:48:57;14.95;;;1.10;;
38130;SDS011;23947;51.894;4.622;2023-03-14T03:51:24;20.70;;;1.85;;
38130;SDS011;23947;51.894;4.622;2023-03-14T03:53:50;13.13;;;1.17;;
38130;SDS011;23947;51.894;4.622;2023-03-14T03:56:15;10.05;;;1.30;;
38130;SDS011;23947;51.894;4.622;2023-03-14T03:58:41;13.77;;;1.52;;
38130;SDS011;23947;51.894;4.622;2023-03-14T04:01:07;15.70;;;1.75;;
38130;SDS011;23947;51.894;4.622;2023-03-14T04:03:34;19.95;;;1.70;;
38130;SDS011;23947;51.894;4.622;2023-03-14T04:08:27;16.88;;;1.10;;
38130;SDS011;23947;51.894;4.622;2023-03-14T04:10:57;19.00;;;1.88;;
38130;SDS011;23947;51.894;4.622;2023-03-14T04:13:24;10.98;;;1.20;;
38130;SDS011;23947;51.894;4.622;2023-03-14T04:15:50;11.95;;;1.52;;
38130;SDS011;23947;51.894;4.622;2023-03-14T04:18:16;13.65;;;1.50;;
38130;SDS011;23947;51.894;4.622;2023-03-14T04:20:41;10.73;;;0.80;;
38130;SDS011;23947;51.894;4.622;2023-03-14T04:23:07;11.70;;;1.08;;
38130;SDS011;23947;51.894;4.622;2023-03-14T04:25:33;8.65;;;0.82;;
38130;SDS011;23947;51.894;4.622;2023-03-14T04:27:58;10.57;;;0.98;;
38130;SDS011;23947;51.894;4.622;2023-03-14T04:30:24;12.38;;;1.10;;
38130;SDS011;23947;51.894;4.622;2023-03-14T04:32:50;11.15;;;1.60;;
38130;SDS011;23947;51.894;4.622;2023-03-14T04:35:15;15.13;;;1.77;;
38130;SDS011;23947;51.894;4.622;2023-03-14T04:37:41;10.63;;;0.88;;
38130;SDS011;23947;51.894;4.622;2023-03-14T04:40:08;7.80;;;0.93;;
38130;SDS011;23947;51.894;4.622;2023-03-14T04:42:35;8.02;;;0.98;;
38130;SDS011;23947;51.894;4.622;2023-03-14T04:45:01;14.13;;;1.13;;
38130;SDS011;23947;51.894;4.622;2023-03-14T04:47:27;10.10;;;1.02;;
38130;SDS011;23947;51.894;4.622;2023-03-14T04:49:53;8.10;;;0.80;;
38130;SDS011;23947;51.894;4.622;2023-03-14T04:52:19;8.98;;;1.20;;
38130;SDS011;23947;51.894;4.622;2023-03-14T04:54:44;5.93;;;0.60;;
38130;SDS011;23947;51.894;4.622;2023-03-14T04:57:10;10.20;;;0.80;;
38130;SDS011;23947;51.894;4.622;2023-03-14T04:59:36;9.25;;;1.23;;
38130;SDS011;23947;51.894;4.622;2023-03-14T05:02:01;6.97;;;0.80;;
38130;SDS011;23947;51.894;4.622;2023-03-14T05:04:27;9.70;;;1.00;;
38130;SDS011;23947;51.894;4.622;2023-03-14T05:06:52;9.95;;;1.05;;
38130;SDS011;23947;51.894;4.622;2023-03-14T05:09:18;7.13;;;0.60;;
38130;SDS011;23947;51.894;4.622;2023-03-14T05:11:44;14.13;;;1.23;;
38130;SDS011;23947;51.894;4.622;2023-03-14T05:14:09;11.50;;;1.00;;
38130;SDS011;23947;51.894;4.622;2023-03-14T05:16:35;11.68;;;1.00;;
38130;SDS011;23947;51.894;4.622;2023-03-14T05:19:00;9.65;;;0.75;;
38130;SDS011;23947;51.894;4.622;2023-03-14T05:21:26;6.30;;;1.13;;
38130;SDS011;23947;51.894;4.622;2023-03-14T05:23:52;9.13;;;1.02;;
38130;SDS011;23947;51.894;4.622;2023-03-14T05:26:18;8.68;;;1.00;;
38130;SDS011;23947;51.894;4.622;2023-03-14T05:28:43;8.73;;;1.20;;
38130;SDS011;23947;51.894;4.622;2023-03-14T05:31:09;9.02;;;1.40;;
38130;SDS011;23947;51.894;4.622;2023-03-14T05:33:35;9.48;;;0.98;;
38130;SDS011;23947;51.894;4.622;2023-03-14T05:36:01;10.02;;;1.50;;
38130;SDS011;23947;51.894;4.622;2023-03-14T05:38:27;8.75;;;1.90;;
38130;SDS011;23947;51.894;4.622;2023-03-14T05:40:53;12.98;;;2.03;;
38130;SDS011;23947;51.894;4.622;2023-03-14T05:43:18;8.88;;;1.80;;
38130;SDS011;23947;51.894;4.622;2023-03-14T05:45:44;6.60;;;1.88;;
38130;SDS011;23947;51.894;4.622;2023-03-14T05:48:09;11.15;;;2.38;;
38130;SDS011;23947;51.894;4.622;2023-03-14T05:50:36;12.60;;;1.80;;
38130;SDS011;23947;51.894;4.622;2023-03-14T05:53:01;7.28;;;1.25;;
38130;SDS011;23947;51.894;4.622;2023-03-14T05:55:27;3.20;;;0.30;;
38130;SDS011;23947;51.894;4.622;2023-03-14T05:57:53;3.33;;;0.55;;
38130;SDS011;23947;51.894;4.622;2023-03-14T06:00:19;9.35;;;0.55;;
38130;SDS011;23947;51.894;4.622;2023-03-14T06:02:45;9.80;;;0.60;;
38130;SDS011;23947;51.894;4.622;2023-03-14T06:05:11;13.30;;;0.40;;
38130;SDS011;23947;51.894;4.622;2023-03-14T06:07:37;6.22;;;0.40;;
38130;SDS011;23947;51.894;4.622;2023-03-14T06:10:03;5.82;;;0.77;;
38130;SDS011;23947;51.894;4.622;2023-03-14T06:12:29;9.40;;;0.40;;
38130;SDS011;23947;51.894;4.622;2023-03-14T06:14:55;8.73;;;0.30;;
38130;SDS011;23947;51.894;4.622;2023-03-14T06:17:20;4.80;;;0.30;;
38130;SDS011;23947;51.894;4.622;2023-03-14T06:19:46;8.32;;;0.50;;
38130;SDS011;23947;51.894;4.622;2023-03-14T06:22:12;7.25;;;0.50;;
38130;SDS011;23947;51.894;4.622;2023-03-14T06:24:38;9.93;;;0.60;;
38130;SDS011;23947;51.894;4.622;2023-03-14T06:27:04;7.63;;;1.15;;
38130;SDS011;23947;51.894;4.622;2023-03-14T06:29:29;7.25;;;0.60;;
38130;SDS011;23947;51.894;4.622;2023-03-14T06:31:55;7.63;;;0.73;;
38130;SDS011;23947;51.894;4.622;2023-03-14T06:34:21;4.95;;;0.80;;
38130;SDS011;23947;51.894;4.622;2023-03-14T06:36:47;8.77;;;0.77;;
38130;SDS011;23947;51.894;4.622;2023-03-14T06:39:12;5.97;;;0.80;;
38130;SDS011;23947;51.894;4.622;2023-03-14T06:41:38;5.85;;;0.80;;
38130;SDS011;23947;51.894;4.622;2023-03-14T06:44:04;4.43;;;0.85;;
38130;SDS011;23947;51.894;4.622;2023-03-14T06:46:30;13.85;;;0.93;;
38130;SDS011;23947;51.894;4.622;2023-03-14T06:48:55;9.23;;;1.15;;
38130;SDS011;23947;51.894;4.622;2023-03-14T06:51:21;8.05;;;0.60;;
38130;SDS011;23947;51.894;4.622;2023-03-14T06:53:47;11.77;;;0.90;;
38130;SDS011;23947;51.894;4.622;2023-03-14T06:56:12;4.35;;;0.40;;
38130;SDS011;23947;51.894;4.622;2023-03-14T06:58:38;6.18;;;0.43;;
38130;SDS011;23947;51.894;4.622;2023-03-14T07:01:04;8.20;;;0.93;;
38130;SDS011;23947;51.894;4.622;2023-03-14T07:03:30;9.25;;;1.10;;
38130;SDS011;23947;51.894;4.622;2023-03-14T07:05:56;5.88;;;0.70;;
38130;SDS011;23947;51.894;4.622;2023-03-14T07:08:22;9.07;;;0.60;;
38130;SDS011;23947;51.894;4.622;2023-03-14T07:10:47;12.55;;;0.55;;
38130;SDS011;23947;51.894;4.622;2023-03-14T07:13:13;7.35;;;0.52;;
38130;SDS011;23947;51.894;4.622;2023-03-14T07:15:39;6.30;;;0.82;;
38130;SDS011;23947;51.894;4.622;2023-03-14T07:18:04;12.02;;;1.08;;
38130;SDS011;23947;51.894;4.622;2023-03-14T07:20:30;10.70;;;0.80;;
38130;SDS011;23947;51.894;4.622;2023-03-14T07:22:57;10.80;;;1.23;;
38130;SDS011;23947;51.894;4.622;2023-03-14T07:25:24;11.70;;;0.85;;
38130;SDS011;23947;51.894;4.622;2023-03-14T07:27:50;13.25;;;1.00;;
38130;SDS011;23947;51.894;4.622;2023-03-14T07:30:16;11.77;;;1.10;;
38130;SDS011;23947;51.894;4.622;2023-03-14T07:32:42;13.60;;;1.20;;
38130;SDS011;23947;51.894;4.622;2023-03-14T07:35:08;19.17;;;1.27;;
38130;SDS011;23947;51.894;4.622;2023-03-14T07:37:34;14.10;;;0.80;;
38130;SDS011;23947;51.894;4.622;2023-03-14T07:39:59;18.98;;;1.88;;
38130;SDS011;23947;51.894;4.622;2023-03-14T07:42:25;7.20;;;1.00;;
38130;SDS011;23947;51.894;4.622;2023-03-14T07:44:51;16.60;;;1.88;;
38130;SDS011;23947;51.894;4.622;2023-03-14T07:47:16;12.27;;;1.50;;
38130;SDS011;23947;51.894;4.622;2023-03-14T07:49:42;16.52;;;1.65;;
38130;SDS011;23947;51.894;4.622;2023-03-14T07:52:07;14.57;;;0.98;;
38130;SDS011;23947;51.894;4.622;2023-03-14T07:54:33;11.48;;;0.77;;
38130;SDS011;23947;51.894;4.622;2023-03-14T07:56:58;11.07;;;0.75;;
38130;SDS011;23947;51.894;4.622;2023-03-14T07:59:25;8.48;;;0.80;;
38130;SDS011;23947;51.894;4.622;2023-03-14T08:01:52;8.38;;;0.95;;
38130;SDS011;23947;51.894;4.622;2023-03-14T08:04:18;8.43;;;0.60;;
38130;SDS011;23947;51.894;4.622;2023-03-14T08:06:43;3.40;;;0.20;;
38130;SDS011;23947;51.894;4.622;2023-03-14T08:09:09;8.75;;;0.40;;
38130;SDS011;23947;51.894;4.622;2023-03-14T08:11:35;1.15;;;0.10;;
38130;SDS011;23947;51.894;4.622;2023-03-14T08:14:01;4.70;;;0.20;;
38130;SDS011;23947;51.894;4.622;2023-03-14T08:16:27;7.32;;;0.25;;
38130;SDS011;23947;51.894;4.622;2023-03-14T08:18:52;9.10;;;0.40;;
38130;SDS011;23947;51.894;4.622;2023-03-14T08:21:18;9.80;;;0.45;;
38130;SDS011;23947;51.894;4.622;2023-03-14T08:23:44;8.35;;;0.45;;
38130;SDS011;23947;51.894;4.622;2023-03-14T08:26:10;9.77;;;0.40;;
38130;SDS011;23947;51.894;4.622;2023-03-14T08:28:35;7.50;;;0.40;;
38130;SDS011;23947;51.894;4.622;2023-03-14T08:31:01;12.30;;;0.75;;
38130;SDS011;23947;51.894;4.622;2023-03-14T08:33:27;9.68;;;1.13;;
38130;SDS011;23947;51.894;4.622;2023-03-14T08:35:54;9.70;;;0.50;;
38130;SDS011;23947;51.894;4.622;2023-03-14T08:38:21;11.40;;;0.70;;
38130;SDS011;23947;51.894;4.622;2023-03-14T08:40:46;7.15;;;0.35;;
38130;SDS011;23947;51.894;4.622;2023-03-14T08:43:12;12.70;;;0.70;;
38130;SDS011;23947;51.894;4.622;2023-03-14T08:45:38;6.38;;;0.30;;
38130;SDS011;23947;51.894;4.622;2023-03-14T08:48:03;5.90;;;0.55;;
38130;SDS011;23947;51.894;4.622;2023-03-14T08:50:29;7.05;;;0.80;;
38130;SDS011;23947;51.894;4.622;2023-03-14T08:52:55;2.67;;;0.22;;
38130;SDS011;23947;51.894;4.622;2023-03-14T08:57:52;6.75;;;0.40;;
38130;SDS011;23947;51.894;4.622;2023-03-14T09:00:18;6.32;;;0.28;;
38130;SDS011;23947;51.894;4.622;2023-03-14T09:02:44;9.00;;;0.50;;
38130;SDS011;23947;51.894;4.622;2023-03-14T09:05:10;6.80;;;0.40;;
38130;SDS011;23947;51.894;4.622;2023-03-14T09:07:36;12.77;;;0.80;;
38130;SDS011;23947;51.894;4.622;2023-03-14T09:10:02;8.30;;;0.63;;
38130;SDS011;23947;51.894;4.622;2023-03-14T09:12:28;7.28;;;0.40;;
38130;SDS011;23947;51.894;4.622;2023-03-14T09:14:54;8.70;;;0.40;;
38130;SDS011;23947;51.894;4.622;2023-03-14T09:17:20;10.77;;;0.90;;
38130;SDS011;23947;51.894;4.622;2023-03-14T09:19:46;9.57;;;1.02;;
38130;SDS011;23947;51.894;4.622;2023-03-14T09:22:11;11.77;;;0.70;;
38130;SDS011;23947;51.894;4.622;2023-03-14T09:24:37;11.52;;;0.60;;
38130;SDS011;23947;51.894;4.622;2023-03-14T09:27:04;13.32;;;0.70;;
38130;SDS011;23947;51.894;4.622;2023-03-14T09:29:29;11.00;;;1.15;;
38130;SDS011;23947;51.894;4.622;2023-03-14T09:31:55;8.57;;;0.80;;
38130;SDS011;23947;51.894;4.622;2023-03-14T09:34:22;14.40;;;0.80;;
38130;SDS011;23947;51.894;4.622;2023-03-14T09:36:48;17.23;;;1.30;;
38130;SDS011;23947;51.894;4.622;2023-03-14T09:39:14;11.57;;;1.33;;
38130;SDS011;23947;51.894;4.622;2023-03-14T09:41:41;14.40;;;1.70;;
38130;SDS011;23947;51.894;4.622;2023-03-14T09:46:37;18.27;;;1.30;;
38130;SDS011;23947;51.894;4.622;2023-03-14T09:49:12;19.67;;;1.63;;
38130;SDS011;23947;51.894;4.622;2023-03-14T09:51:56;19.98;;;1.30;;
38130;SDS011;23947;51.894;4.622;2023-03-14T09:54:30;26.88;;;1.88;;
38130;SDS011;23947;51.894;4.622;2023-03-14T09:56:59;14.75;;;1.30;;
38130;SDS011;23947;51.894;4.622;2023-03-14T09:59:25;17.83;;;1.02;;
38130;SDS011;23947;51.894;4.622;2023-03-14T10:01:53;24.67;;;1.52;;
38130;SDS011;23947;51.894;4.622;2023-03-14T10:04:23;24.08;;;2.03;;
38130;SDS011;23947;51.894;4.622;2023-03-14T10:06:50;22.15;;;1.60;;
38130;SDS011;23947;51.894;4.622;2023-03-14T10:09:20;26.55;;;2.38;;
38130;SDS011;23947;51.894;4.622;2023-03-14T10:11:51;21.10;;;1.98;;
38130;SDS011;23947;51.894;4.622;2023-03-14T10:14:31;29.80;;;2.65;;
38130;SDS011;23947;51.894;4.622;2023-03-14T10:17:09;33.45;;;2.47;;
38130;SDS011;23947;51.894;4.622;2023-03-14T10:19:36;22.00;;;2.08;;
38130;SDS011;23947;51.894;4.622;2023-03-14T10:22:04;23.33;;;1.48;;
38130;SDS011;23947;51.894;4.622;2023-03-14T10:24:32;32.55;;;2.70;;
38130;SDS011;23947;51.894;4.622;2023-03-14T10:27:10;18.63;;;1.65;;
38130;SDS011;23947;51.894;4.622;2023-03-14T10:32:21;33.33;;;3.50;;
38130;SDS011;23947;51.894;4.622;2023-03-14T10:37:30;25.17;;;1.60;;
38130;SDS011;23947;51.894;4.622;2023-03-14T10:40:00;24.13;;;2.20;;
38130;SDS011;23947;51.894;4.622;2023-03-14T10:42:30;23.98;;;2.15;;
38130;SDS011;23947;51.894;4.622;2023-03-14T10:45:04;26.63;;;2.95;;
38130;SDS011;23947;51.894;4.622;2023-03-14T10:47:50;22.65;;;3.00;;
38130;SDS011;23947;51.894;4.622;2023-03-14T10:50:24;34.55;;;3.65;;
38130;SDS011;23947;51.894;4.622;2023-03-14T10:52:55;24.63;;;2.10;;
38130;SDS011;23947;51.894;4.622;2023-03-14T10:55:23;22.13;;;2.30;;
38130;SDS011;23947;51.894;4.622;2023-03-14T10:57:50;18.98;;;1.63;;
38130;SDS011;23947;51.894;4.622;2023-03-14T11:00:17;21.25;;;2.53;;
38130;SDS011;23947;51.894;4.622;2023-03-14T11:03:00;25.17;;;2.08;;
38130;SDS011;23947;51.894;4.622;2023-03-14T11:07:56;26.42;;;2.58;;
38130;SDS011;23947;51.894;4.622;2023-03-14T11:10:35;37.70;;;3.10;;
38130;SDS011;23947;51.894;4.622;2023-03-14T11:18:33;27.63;;;2.78;;
38130;SDS011;23947;51.894;4.622;2023-03-14T11:24:27;23.52;;;2.65;;
38130;SDS011;23947;51.894;4.622;2023-03-14T11:32:11;22.00;;;1.80;;
38130;SDS011;23947;51.894;4.622;2023-03-14T11:34:56;21.27;;;1.67;;
38130;SDS011;23947;51.894;4.622;2023-03-14T11:38:10;20.48;;;1.60;;
38130;SDS011;23947;51.894;4.622;2023-03-14T11:40:19;22.70;;;1.90;;
38130;SDS011;23947;51.894;4.622;2023-03-14T11:45:41;15.68;;;1.27;;
38130;SDS011;23947;51.894;4.622;2023-03-14T11:50:55;11.48;;;0.80;;
38130;SDS011;23947;51.894;4.622;2023-03-14T11:56:06;13.50;;;1.45;;
38130;SDS011;23947;51.894;4.622;2023-03-14T11:58:51;10.52;;;1.10;;
38130;SDS011;23947;51.894;4.622;2023-03-14T12:01:27;6.93;;;0.50;;
38130;SDS011;23947;51.894;4.622;2023-03-14T12:06:56;21.17;;;1.73;;
38130;SDS011;23947;51.894;4.622;2023-03-14T12:09:28;13.77;;;1.70;;
38130;SDS011;23947;51.894;4.622;2023-03-14T12:11:56;10.95;;;0.70;;
38130;SDS011;23947;51.894;4.622;2023-03-14T12:16:55;7.43;;;0.63;;
38130;SDS011;23947;51.894;4.622;2023-03-14T12:21:53;12.98;;;1.27;;
38130;SDS011;23947;51.894;4.622;2023-03-14T12:24:25;14.43;;;1.00;;
38130;SDS011;23947;51.894;4.622;2023-03-14T12:29:20;13.18;;;1.00;;
38130;SDS011;23947;51.894;4.622;2023-03-14T12:31:47;14.80;;;1.20;;
38130;SDS011;23947;51.894;4.622;2023-03-14T12:42:43;7.53;;;0.55;;
38130;SDS011;23947;51.894;4.622;2023-03-14T12:45:23;10.50;;;0.60;;
38130;SDS011;23947;51.894;4.622;2023-03-14T12:50:20;13.13;;;0.77;;
38130;SDS011;23947;51.894;4.622;2023-03-14T12:55:21;11.20;;;0.60;;
38130;SDS011;23947;51.894;4.622;2023-03-14T13:00:59;15.30;;;0.77;;
38130;SDS011;23947;51.894;4.622;2023-03-14T13:03:36;13.52;;;1.10;;
38130;SDS011;23947;51.894;4.622;2023-03-14T13:12:17;12.55;;;0.80;;
38130;SDS011;23947;51.894;4.622;2023-03-14T13:14:48;12.98;;;0.65;;
38130;SDS011;23947;51.894;4.622;2023-03-14T13:17:19;10.52;;;0.60;;
38130;SDS011;23947;51.894;4.622;2023-03-14T13:19:55;9.43;;;0.50;;
38130;SDS011;23947;51.894;4.622;2023-03-14T13:22:26;8.48;;;0.38;;
38130;SDS011;23947;51.894;4.622;2023-03-14T13:25:00;4.70;;;0.35;;
38130;SDS011;23947;51.894;4.622;2023-03-14T13:27:30;14.70;;;0.95;;
38130;SDS011;23947;51.894;4.622;2023-03-14T13:34:09;11.15;;;1.23;;
38130;SDS011;23947;51.894;4.622;2023-03-14T13:36:43;8.00;;;0.73;;
38130;SDS011;23947;51.894;4.622;2023-03-14T13:39:43;6.43;;;0.60;;
38130;SDS011;23947;51.894;4.622;2023-03-14T13:46:21;9.13;;;0.43;;
38130;SDS011;23947;51.894;4.622;2023-03-14T13:53:20;5.85;;;0.50;;
38130;SDS011;23947;51.894;4.622;2023-03-14T13:56:08;13.95;;;1.13;;
38130;SDS011;23947;51.894;4.622;2023-03-14T13:58:40;9.38;;;0.60;;
38130;SDS011;23947;51.894;4.622;2023-03-14T14:08:10;6.97;;;0.75;;
38130;SDS011;23947;51.894;4.622;2023-03-14T14:10:59;10.70;;;1.20;;
38130;SDS011;23947;51.894;4.622;2023-03-14T14:17:14;9.05;;;0.50;;
38130;SDS011;23947;51.894;4.622;2023-03-14T14:23:40;7.40;;;0.60;;
38130;SDS011;23947;51.894;4.622;2023-03-14T14:40:31;10.60;;;0.82;;
38130;SDS011;23947;51.894;4.622;2023-03-14T14:43:03;14.23;;;0.60;;
38130;SDS011;23947;51.894;4.622;2023-03-14T14:45:39;9.68;;;0.60;;
38130;SDS011;23947;51.894;4.622;2023-03-14T14:52:17;10.27;;;0.80;;
38130;SDS011;23947;51.894;4.622;2023-03-14T14:55:22;13.52;;;0.65;;
38130;SDS011;23947;51.894;4.622;2023-03-14T14:57:48;8.75;;;0.40;;
38130;SDS011;23947;51.894;4.622;2023-03-14T15:00:20;16.95;;;1.13;;
38130;SDS011;23947;51.894;4.622;2023-03-14T15:02:48;10.75;;;0.77;;
38130;SDS011;23947;51.894;4.622;2023-03-14T15:05:18;8.95;;;0.90;;
38130;SDS011;23947;51.894;4.622;2023-03-14T15:07:45;13.43;;;0.70;;
38130;SDS011;23947;51.894;4.622;2023-03-14T15:10:12;18.45;;;1.30;;
38130;SDS011;23947;51.894;4.622;2023-03-14T15:12:40;18.25;;;1.50;;
38130;SDS011;23947;51.894;4.622;2023-03-14T15:15:06;10.50;;;0.82;;
38130;SDS011;23947;51.894;4.622;2023-03-14T15:17:32;11.55;;;1.13;;
38130;SDS011;23947;51.894;4.622;2023-03-14T15:19:58;11.65;;;1.60;;
38130;SDS011;23947;51.894;4.622;2023-03-14T15:22:24;12.18;;;2.88;;
38130;SDS011;23947;51.894;4.622;2023-03-14T15:24:50;7.75;;;1.25;;
38130;SDS011;23947;51.894;4.622;2023-03-14T15:27:16;8.20;;;0.80;;
38130;SDS011;23947;51.894;4.622;2023-03-14T15:29:42;9.00;;;1.02;;
38130;SDS011;23947;51.894;4.622;2023-03-14T15:32:12;10.65;;;1.02;;
38130;SDS011;23947;51.894;4.622;2023-03-14T15:34:39;5.90;;;0.65;;
38130;SDS011;23947;51.894;4.622;2023-03-14T15:37:10;14.55;;;1.38;;
38130;SDS011;23947;51.894;4.622;2023-03-14T15:39:38;12.95;;;0.90;;
38130;SDS011;23947;51.894;4.622;2023-03-14T15:42:04;11.50;;;0.85;;
38130;SDS011;23947;51.894;4.622;2023-03-14T15:44:30;26.15;;;10.15;;
38130;SDS011;23947;51.894;4.622;2023-03-14T15:46:56;20.83;;;7.82;;
38130;SDS011;23947;51.894;4.622;2023-03-14T15:49:22;14.07;;;1.70;;
38130;SDS011;23947;51.894;4.622;2023-03-14T15:51:47;8.32;;;1.00;;
38130;SDS011;23947;51.894;4.622;2023-03-14T15:54:13;5.88;;;1.02;;
38130;SDS011;23947;51.894;4.622;2023-03-14T15:56:39;7.30;;;0.63;;
38130;SDS011;23947;51.894;4.622;2023-03-14T15:59:05;12.85;;;1.90;;
38130;SDS011;23947;51.894;4.622;2023-03-14T16:01:30;12.65;;;1.88;;
38130;SDS011;23947;51.894;4.622;2023-03-14T16:03:56;10.63;;;0.65;;
38130;SDS011;23947;51.894;4.622;2023-03-14T16:06:21;11.57;;;2.50;;
38130;SDS011;23947;51.894;4.622;2023-03-14T16:08:47;18.50;;;5.07;;
38130;SDS011;23947;51.894;4.622;2023-03-14T16:21:36;12.07;;;1.20;;
38130;SDS011;23947;51.894;4.622;2023-03-14T16:24:49;13.35;;;0.75;;
38130;SDS011;23947;51.894;4.622;2023-03-14T16:33:55;13.05;;;1.13;;
38130;SDS011;23947;51.894;4.622;2023-03-14T16:50:09;9.55;;;1.52;;
38130;SDS011;23947;51.894;4.622;2023-03-14T16:52:38;8.70;;;1.30;;
38130;SDS011;23947;51.894;4.622;2023-03-14T16:55:40;13.30;;;0.80;;
38130;SDS011;23947;51.894;4.622;2023-03-14T17:04:23;13.02;;;1.08;;
38130;SDS011;23947;51.894;4.622;2023-03-14T17:06:49;12.10;;;1.08;;
38130;SDS011;23947;51.894;4.622;2023-03-14T17:09:16;16.52;;;1.45;;
38130;SDS011;23947;51.894;4.622;2023-03-14T17:11:42;15.80;;;1.02;;
38130;SDS011;23947;51.894;4.622;2023-03-14T17:14:07;15.07;;;1.15;;
38130;SDS011;23947;51.894;4.622;2023-03-14T17:16:33;11.30;;;1.20;;
38130;SDS011;23947;51.894;4.622;2023-03-14T17:18:58;8.52;;;0.80;;
38130;SDS011;23947;51.894;4.622;2023-03-14T17:21:24;19.80;;;1.30;;